Time;durP1;ratioP1;P1;durP2;ratioP2;P2;SDS_P1;SDS_P2;PMS_P1;PMS_P2;Temp;Humidity;BMP_temperature;BMP_pressure;BME280_temperature;BME280_humidity;BME280_pressure;Samples;Min_cycle;Max_cycle;Signal;HPM_P1;HPM_P2
2020/10/27 00:00:40;;;;;;;1.8;1.6;;;;;;;4.36;100;94623.74;;;;
2020/10/27 00:01:41;;;;;;;1.8;1.6;;;;;;;4.36;100;94623.74;;;;
2020/10/27 00:02:42;;;;;;;1.8;1.6;;;;;;;4.36;100;94623.74;;;;
2020/10/27 00:03:43;;;;;;;1.8;1.6;;;;;;;4.36;100;94623.74;;;;
2020/10/27 00:04:43;;;;;;;1.8;1.6;;;;;;;4.36;100;94623.74;;;;
2020/10/27 00:05:44;;;;;;;1.8;1.6;;;;;;;4.36;100;94623.74;;;;
2020/10/27 00:06:44;;;;;;;1.8;1.6;;;;;;;4.36;100;94623.74;;;;
2020/10/27 00:07:45;;;;;;;1.8;1.6;;;;;;;4.36;100;94623.74;;;;
2020/10/27 00:08:45;;;;;;;1.8;1.6;;;;;;;4.36;100;94623.74;;;;
2020/10/27 00:09:46;;;;;;;1.6;1.45;;;;;;;4.4;100;94619.19;;;;
2020/10/27 00:10:46;;;;;;;1.6;1.45;;;;;;;4.4;100;94619.19;;;;
2020/10/27 00:11:47;;;;;;;1.6;1.45;;;;;;;4.4;100;94619.19;;;;
2020/10/27 00:12:47;;;;;;;1.6;1.45;;;;;;;4.4;100;94619.19;;;;
2020/10/27 00:13:48;;;;;;;1.6;1.45;;;;;;;4.4;100;94619.19;;;;
2020/10/27 00:14:48;;;;;;;1.6;1.45;;;;;;;4.4;100;94619.19;;;;
2020/10/27 00:15:49;;;;;;;1.6;1.45;;;;;;;4.4;100;94619.19;;;;
2020/10/27 00:16:50;;;;;;;1.6;1.45;;;;;;;4.4;100;94619.19;;;;
2020/10/27 00:17:50;;;;;;;1.6;1.45;;;;;;;4.4;100;94619.19;;;;
2020/10/27 00:18:51;;;;;;;1.6;1.45;;;;;;;4.4;100;94619.19;;;;
2020/10/27 00:19:51;;;;;;;1.6;1.45;;;;;;;4.4;100;94619.19;;;;
2020/10/27 00:20:52;;;;;;;1.7;1.6;;;;;;;4.39;100;94636.66;;;;
2020/10/27 00:21:53;;;;;;;1.7;1.6;;;;;;;4.39;100;94636.66;;;;
2020/10/27 00:22:54;;;;;;;1.7;1.6;;;;;;;4.39;100;94636.66;;;;
2020/10/27 00:23:55;;;;;;;1.7;1.6;;;;;;;4.39;100;94636.66;;;;
2020/10/27 00:24:55;;;;;;;1.7;1.6;;;;;;;4.39;100;94636.66;;;;
2020/10/27 00:25:56;;;;;;;1.7;1.6;;;;;;;4.39;100;94636.66;;;;
2020/10/27 00:26:56;;;;;;;1.7;1.6;;;;;;;4.39;100;94636.66;;;;
2020/10/27 00:27:59;;;;;;;1.7;1.6;;;;;;;4.39;100;94636.66;;;;
2020/10/27 00:28:59;;;;;;;1.7;1.6;;;;;;;4.39;100;94636.66;;;;
2020/10/27 00:29:59;;;;;;;1.7;1.6;;;;;;;4.39;100;94636.66;;;;
2020/10/27 00:31:00;;;;;;;1.8;1.2;;;;;;;4.44;100;94629.77;;;;
2020/10/27 00:32:01;;;;;;;1.8;1.2;;;;;;;4.44;100;94629.77;;;;
2020/10/27 00:33:01;;;;;;;1.8;1.2;;;;;;;4.44;100;94629.77;;;;
2020/10/27 00:34:02;;;;;;;1.8;1.2;;;;;;;4.44;100;94629.77;;;;
2020/10/27 00:35:02;;;;;;;1.8;1.2;;;;;;;4.44;100;94629.77;;;;
2020/10/27 00:36:03;;;;;;;1.8;1.2;;;;;;;4.44;100;94629.77;;;;
2020/10/27 00:37:03;;;;;;;1.8;1.2;;;;;;;4.44;100;94629.77;;;;
2020/10/27 00:38:04;;;;;;;1.8;1.2;;;;;;;4.44;100;94629.77;;;;
2020/10/27 00:39:05;;;;;;;1.8;1.2;;;;;;;4.44;100;94629.77;;;;
2020/10/27 00:40:05;;;;;;;1.8;1.2;;;;;;;4.44;100;94629.77;;;;
2020/10/27 00:41:06;;;;;;;1.8;1.2;;;;;;;4.44;100;94629.77;;;;
2020/10/27 00:42:06;;;;;;;1.5;1.2;;;;;;;4.42;100;94628.65;;;;
2020/10/27 00:43:07;;;;;;;1.5;1.2;;;;;;;4.42;100;94628.65;;;;
2020/10/27 00:44:07;;;;;;;1.5;1.2;;;;;;;4.42;100;94628.65;;;;
2020/10/27 00:45:08;;;;;;;1.5;1.2;;;;;;;4.42;100;94628.65;;;;
2020/10/27 00:46:08;;;;;;;1.5;1.2;;;;;;;4.42;100;94628.65;;;;
2020/10/27 00:47:09;;;;;;;1.5;1.2;;;;;;;4.42;100;94628.65;;;;
2020/10/27 00:48:09;;;;;;;1.5;1.2;;;;;;;4.42;100;94628.65;;;;
2020/10/27 00:49:10;;;;;;;1.5;1.2;;;;;;;4.42;100;94628.65;;;;
2020/10/27 00:50:10;;;;;;;1.5;1.2;;;;;;;4.42;100;94628.65;;;;
2020/10/27 00:51:11;;;;;;;1.5;1.2;;;;;;;4.42;100;94628.65;;;;
2020/10/27 00:52:12;;;;;;;1.5;1.2;;;;;;;4.42;100;94628.65;;;;
2020/10/27 00:53:12;;;;;;;1.7;1.2;;;;;;;4.48;100;94615.33;;;;
2020/10/27 00:54:13;;;;;;;1.7;1.2;;;;;;;4.48;100;94615.33;;;;
2020/10/27 00:55:13;;;;;;;1.7;1.2;;;;;;;4.48;100;94615.33;;;;
2020/10/27 00:56:14;;;;;;;1.7;1.2;;;;;;;4.48;100;94615.33;;;;
2020/10/27 00:57:14;;;;;;;1.7;1.2;;;;;;;4.48;100;94615.33;;;;
2020/10/27 00:58:16;;;;;;;1.7;1.2;;;;;;;4.48;100;94615.33;;;;
2020/10/27 00:59:16;;;;;;;1.7;1.2;;;;;;;4.48;100;94615.33;;;;
2020/10/27 01:00:16;;;;;;;1.7;1.2;;;;;;;4.48;100;94615.33;;;;
2020/10/27 01:01:17;;;;;;;1.7;1.2;;;;;;;4.48;100;94615.33;;;;
2020/10/27 01:02:18;;;;;;;1.7;1.2;;;;;;;4.48;100;94615.33;;;;
2020/10/27 01:03:18;;;;;;;2.4;1.2;;;;;;;4.47;100;94601.26;;;;
2020/10/27 01:04:19;;;;;;;2.4;1.2;;;;;;;4.47;100;94601.26;;;;
2020/10/27 01:05:20;;;;;;;2.4;1.2;;;;;;;4.47;100;94601.26;;;;
2020/10/27 01:06:20;;;;;;;2.4;1.2;;;;;;;4.47;100;94601.26;;;;
2020/10/27 01:07:21;;;;;;;2.4;1.2;;;;;;;4.47;100;94601.26;;;;
2020/10/27 01:08:22;;;;;;;2.4;1.2;;;;;;;4.47;100;94601.26;;;;
2020/10/27 01:09:23;;;;;;;2.4;1.2;;;;;;;4.47;100;94601.26;;;;
2020/10/27 01:10:23;;;;;;;2.4;1.2;;;;;;;4.47;100;94601.26;;;;
2020/10/27 01:11:24;;;;;;;2.4;1.2;;;;;;;4.47;100;94601.26;;;;
2020/10/27 01:12:25;;;;;;;2.4;1.2;;;;;;;4.47;100;94601.26;;;;
2020/10/27 01:13:25;;;;;;;2.4;1.2;;;;;;;4.47;100;94601.26;;;;
2020/10/27 01:14:26;;;;;;;1.4;1.3;;;;;;;4.49;100;94597.44;;;;
2020/10/27 01:15:26;;;;;;;1.4;1.3;;;;;;;4.49;100;94597.44;;;;
2020/10/27 01:16:27;;;;;;;1.4;1.3;;;;;;;4.49;100;94597.44;;;;
2020/10/27 01:17:28;;;;;;;1.4;1.3;;;;;;;4.49;100;94597.44;;;;
2020/10/27 01:18:28;;;;;;;1.4;1.3;;;;;;;4.49;100;94597.44;;;;
2020/10/27 01:19:29;;;;;;;1.4;1.3;;;;;;;4.49;100;94597.44;;;;
2020/10/27 01:20:29;;;;;;;1.4;1.3;;;;;;;4.49;100;94597.44;;;;
2020/10/27 01:21:30;;;;;;;1.4;1.3;;;;;;;4.49;100;94597.44;;;;
2020/10/27 01:22:31;;;;;;;1.4;1.3;;;;;;;4.49;100;94597.44;;;;
2020/10/27 01:23:31;;;;;;;1.4;1.3;;;;;;;4.49;100;94597.44;;;;
2020/10/27 01:24:32;;;;;;;1.3;1.15;;;;;;;4.45;100;94587.7;;;;
2020/10/27 01:25:32;;;;;;;1.3;1.15;;;;;;;4.45;100;94587.7;;;;
2020/10/27 01:26:33;;;;;;;1.3;1.15;;;;;;;4.45;100;94587.7;;;;
2020/10/27 01:27:33;;;;;;;1.3;1.15;;;;;;;4.45;100;94587.7;;;;
2020/10/27 01:28:34;;;;;;;1.3;1.15;;;;;;;4.45;100;94587.7;;;;
2020/10/27 01:29:34;;;;;;;1.3;1.15;;;;;;;4.45;100;94587.7;;;;
2020/10/27 01:30:35;;;;;;;1.3;1.15;;;;;;;4.45;100;94587.7;;;;
2020/10/27 01:31:35;;;;;;;1.3;1.15;;;;;;;4.45;100;94587.7;;;;
2020/10/27 01:32:36;;;;;;;1.3;1.15;;;;;;;4.45;100;94587.7;;;;
2020/10/27 01:33:36;;;;;;;1.3;1.15;;;;;;;4.45;100;94587.7;;;;
2020/10/27 01:34:37;;;;;;;1.3;1.15;;;;;;;4.45;100;94587.7;;;;
2020/10/27 01:35:37;;;;;;;1.6;1.1;;;;;;;4.49;100;94596.11;;;;
2020/10/27 01:36:38;;;;;;;1.6;1.1;;;;;;;4.49;100;94596.11;;;;
2020/10/27 01:37:38;;;;;;;1.6;1.1;;;;;;;4.49;100;94596.11;;;;
2020/10/27 01:38:39;;;;;;;1.6;1.1;;;;;;;4.49;100;94596.11;;;;
2020/10/27 01:39:40;;;;;;;1.6;1.1;;;;;;;4.49;100;94596.11;;;;
2020/10/27 01:40:40;;;;;;;1.6;1.1;;;;;;;4.49;100;94596.11;;;;
2020/10/27 01:41:41;;;;;;;1.6;1.1;;;;;;;4.49;100;94596.11;;;;
2020/10/27 01:42:41;;;;;;;1.6;1.1;;;;;;;4.49;100;94596.11;;;;
2020/10/27 01:43:42;;;;;;;1.6;1.1;;;;;;;4.49;100;94596.11;;;;
2020/10/27 01:44:42;;;;;;;1.6;1.1;;;;;;;4.49;100;94596.11;;;;
2020/10/27 01:45:43;;;;;;;1.4;1.3;;;;;;;4.49;100;94577.31;;;;
2020/10/27 01:46:43;;;;;;;1.4;1.3;;;;;;;4.49;100;94577.31;;;;
2020/10/27 01:47:47;;;;;;;1.4;1.3;;;;;;;4.49;100;94577.31;;;;
2020/10/27 01:48:48;;;;;;;1.4;1.3;;;;;;;4.49;100;94577.31;;;;
2020/10/27 01:49:48;;;;;;;1.4;1.3;;;;;;;4.49;100;94577.31;;;;
2020/10/27 01:50:49;;;;;;;1.4;1.3;;;;;;;4.49;100;94577.31;;;;
2020/10/27 01:51:49;;;;;;;1.4;1.3;;;;;;;4.49;100;94577.31;;;;
2020/10/27 01:52:50;;;;;;;1.4;1.3;;;;;;;4.49;100;94577.31;;;;
2020/10/27 01:53:52;;;;;;;1.4;1.3;;;;;;;4.49;100;94577.31;;;;
2020/10/27 01:54:52;;;;;;;1.4;1.3;;;;;;;4.49;100;94577.31;;;;
2020/10/27 01:55:53;;;;;;;1.4;1.3;;;;;;;4.49;100;94577.31;;;;
2020/10/27 01:56:55;;;;;;;1.3;1.2;;;;;;;4.55;100;94566.66;;;;
2020/10/27 01:57:56;;;;;;;1.3;1.2;;;;;;;4.55;100;94566.66;;;;
2020/10/27 01:58:56;;;;;;;1.3;1.2;;;;;;;4.55;100;94566.66;;;;
2020/10/27 01:59:57;;;;;;;1.3;1.2;;;;;;;4.55;100;94566.66;;;;
2020/10/27 02:00:58;;;;;;;1.3;1.2;;;;;;;4.55;100;94566.66;;;;
2020/10/27 02:01:59;;;;;;;1.3;1.2;;;;;;;4.55;100;94566.66;;;;
2020/10/27 02:03:03;;;;;;;1.3;1.2;;;;;;;4.55;100;94566.66;;;;
2020/10/27 02:04:04;;;;;;;1.3;1.2;;;;;;;4.55;100;94566.66;;;;
2020/10/27 02:05:05;;;;;;;1.3;1.2;;;;;;;4.55;100;94566.66;;;;
2020/10/27 02:06:05;;;;;;;1.3;1.2;;;;;;;4.55;100;94566.66;;;;
2020/10/27 02:07:07;;;;;;;1.2;1.1;;;;;;;4.56;100;94558.03;;;;
2020/10/27 02:08:08;;;;;;;1.2;1.1;;;;;;;4.56;100;94558.03;;;;
2020/10/27 02:09:09;;;;;;;1.2;1.1;;;;;;;4.56;100;94558.03;;;;
2020/10/27 02:10:13;;;;;;;1.2;1.1;;;;;;;4.56;100;94558.03;;;;
2020/10/27 02:11:15;;;;;;;1.2;1.1;;;;;;;4.56;100;94558.03;;;;
2020/10/27 02:12:16;;;;;;;1.2;1.1;;;;;;;4.56;100;94558.03;;;;
2020/10/27 02:13:16;;;;;;;1.2;1.1;;;;;;;4.56;100;94558.03;;;;
2020/10/27 02:14:24;;;;;;;1.2;1.1;;;;;;;4.56;100;94558.03;;;;
2020/10/27 02:15:25;;;;;;;1.2;1.1;;;;;;;4.56;100;94558.03;;;;
2020/10/27 02:16:25;;;;;;;1.2;1.1;;;;;;;4.56;100;94558.03;;;;
2020/10/27 02:17:26;;;;;;;1.2;1.1;;;;;;;4.56;100;94558.03;;;;
2020/10/27 02:18:26;;;;;;;2.45;1;;;;;;;4.64;100;94564.97;;;;
2020/10/27 02:19:27;;;;;;;2.45;1;;;;;;;4.64;100;94564.97;;;;
2020/10/27 02:20:27;;;;;;;2.45;1;;;;;;;4.64;100;94564.97;;;;
2020/10/27 02:21:28;;;;;;;2.45;1;;;;;;;4.64;100;94564.97;;;;
2020/10/27 02:22:37;;;;;;;2.45;1;;;;;;;4.64;100;94564.97;;;;
2020/10/27 02:23:38;;;;;;;2.45;1;;;;;;;4.64;100;94564.97;;;;
2020/10/27 02:24:38;;;;;;;2.45;1;;;;;;;4.64;100;94564.97;;;;
2020/10/27 02:25:39;;;;;;;2.45;1;;;;;;;4.64;100;94564.97;;;;
2020/10/27 02:26:40;;;;;;;2.45;1;;;;;;;4.64;100;94564.97;;;;
2020/10/27 02:27:41;;;;;;;2.45;1;;;;;;;4.64;100;94564.97;;;;
2020/10/27 02:28:41;;;;;;;1.6;0.9;;;;;;;4.65;100;94578.21;;;;
2020/10/27 02:29:51;;;;;;;1.6;0.9;;;;;;;4.65;100;94578.21;;;;
2020/10/27 02:30:51;;;;;;;1.6;0.9;;;;;;;4.65;100;94578.21;;;;
2020/10/27 02:31:52;;;;;;;1.6;0.9;;;;;;;4.65;100;94578.21;;;;
2020/10/27 02:32:53;;;;;;;1.6;0.9;;;;;;;4.65;100;94578.21;;;;
2020/10/27 02:33:53;;;;;;;1.6;0.9;;;;;;;4.65;100;94578.21;;;;
2020/10/27 02:34:54;;;;;;;1.6;0.9;;;;;;;4.65;100;94578.21;;;;
2020/10/27 02:35:54;;;;;;;1.6;0.9;;;;;;;4.65;100;94578.21;;;;
2020/10/27 02:36:55;;;;;;;1.6;0.9;;;;;;;4.65;100;94578.21;;;;
2020/10/27 02:37:55;;;;;;;1.6;0.9;;;;;;;4.65;100;94578.21;;;;
2020/10/27 02:38:56;;;;;;;1.6;0.9;;;;;;;4.65;100;94578.21;;;;
2020/10/27 02:39:56;;;;;;;0.75;0.7;;;;;;;4.72;100;94582.98;;;;
2020/10/27 02:40:57;;;;;;;0.75;0.7;;;;;;;4.72;100;94582.98;;;;
2020/10/27 02:41:57;;;;;;;0.75;0.7;;;;;;;4.72;100;94582.98;;;;
2020/10/27 02:42:58;;;;;;;0.75;0.7;;;;;;;4.72;100;94582.98;;;;
2020/10/27 02:43:58;;;;;;;0.75;0.7;;;;;;;4.72;100;94582.98;;;;
2020/10/27 02:44:59;;;;;;;0.75;0.7;;;;;;;4.72;100;94582.98;;;;
2020/10/27 02:46:00;;;;;;;0.75;0.7;;;;;;;4.72;100;94582.98;;;;
2020/10/27 02:47:00;;;;;;;0.75;0.7;;;;;;;4.72;100;94582.98;;;;
2020/10/27 02:48:01;;;;;;;0.75;0.7;;;;;;;4.72;100;94582.98;;;;
2020/10/27 02:49:01;;;;;;;0.75;0.7;;;;;;;4.72;100;94582.98;;;;
2020/10/27 02:50:03;;;;;;;0.8;0.8;;;;;;;4.71;100;94566.53;;;;
2020/10/27 02:51:07;;;;;;;0.8;0.8;;;;;;;4.71;100;94566.53;;;;
2020/10/27 02:52:08;;;;;;;0.8;0.8;;;;;;;4.71;100;94566.53;;;;
2020/10/27 02:53:09;;;;;;;0.8;0.8;;;;;;;4.71;100;94566.53;;;;
2020/10/27 02:54:09;;;;;;;0.8;0.8;;;;;;;4.71;100;94566.53;;;;
2020/10/27 02:55:10;;;;;;;0.8;0.8;;;;;;;4.71;100;94566.53;;;;
2020/10/27 02:56:14;;;;;;;0.8;0.8;;;;;;;4.71;100;94566.53;;;;
2020/10/27 02:57:19;;;;;;;0.8;0.8;;;;;;;4.71;100;94566.53;;;;
2020/10/27 02:58:21;;;;;;;0.8;0.8;;;;;;;4.71;100;94566.53;;;;
2020/10/27 02:59:34;;;;;;;0.8;0.8;;;;;;;4.71;100;94566.53;;;;
2020/10/27 03:00:40;;;;;;;0.7;0.7;;;;;;;4.74;100;94559.01;;;;
2020/10/27 03:01:45;;;;;;;0.7;0.7;;;;;;;4.74;100;94559.01;;;;
2020/10/27 03:02:45;;;;;;;0.7;0.7;;;;;;;4.74;100;94559.01;;;;
2020/10/27 03:03:46;;;;;;;0.7;0.7;;;;;;;4.74;100;94559.01;;;;
2020/10/27 03:04:46;;;;;;;0.7;0.7;;;;;;;4.74;100;94559.01;;;;
2020/10/27 03:05:47;;;;;;;0.7;0.7;;;;;;;4.74;100;94559.01;;;;
2020/10/27 03:06:49;;;;;;;0.7;0.7;;;;;;;4.74;100;94559.01;;;;
2020/10/27 03:07:50;;;;;;;0.7;0.7;;;;;;;4.74;100;94559.01;;;;
2020/10/27 03:08:52;;;;;;;0.7;0.7;;;;;;;4.74;100;94559.01;;;;
2020/10/27 03:09:58;;;;;;;0.7;0.7;;;;;;;4.74;100;94559.01;;;;
2020/10/27 03:10:59;;;;;;;0.7;0.7;;;;;;;4.74;100;94559.01;;;;
2020/10/27 03:12:09;;;;;;;0.7;0.7;;;;;;;4.71;100;94561.19;;;;
2020/10/27 03:13:14;;;;;;;0.7;0.7;;;;;;;4.71;100;94561.19;;;;
2020/10/27 03:14:19;;;;;;;0.7;0.7;;;;;;;4.71;100;94561.19;;;;
2020/10/27 03:15:33;;;;;;;0.7;0.7;;;;;;;4.71;100;94561.19;;;;
2020/10/27 03:17:06;;;;;;;0.7;0.7;;;;;;;4.71;100;94561.19;;;;
2020/10/27 03:18:08;;;;;;;0.7;0.7;;;;;;;4.71;100;94561.19;;;;
2020/10/27 03:19:12;;;;;;;0.7;0.7;;;;;;;4.71;100;94561.19;;;;
2020/10/27 03:20:13;;;;;;;0.7;0.7;;;;;;;4.71;100;94561.19;;;;
2020/10/27 03:21:14;;;;;;;0.7;0.7;;;;;;;4.71;100;94561.19;;;;
2020/10/27 03:22:15;;;;;;;0.7;0.7;;;;;;;4.7;100;94555.14;;;;
2020/10/27 03:23:15;;;;;;;0.7;0.7;;;;;;;4.7;100;94555.14;;;;
2020/10/27 03:24:16;;;;;;;0.7;0.7;;;;;;;4.7;100;94555.14;;;;
2020/10/27 03:25:16;;;;;;;0.7;0.7;;;;;;;4.7;100;94555.14;;;;
2020/10/27 03:26:17;;;;;;;0.7;0.7;;;;;;;4.7;100;94555.14;;;;
2020/10/27 03:27:17;;;;;;;0.7;0.7;;;;;;;4.7;100;94555.14;;;;
2020/10/27 03:28:18;;;;;;;0.7;0.7;;;;;;;4.7;100;94555.14;;;;
2020/10/27 03:29:19;;;;;;;0.7;0.7;;;;;;;4.7;100;94555.14;;;;
2020/10/27 03:30:19;;;;;;;0.7;0.7;;;;;;;4.7;100;94555.14;;;;
2020/10/27 03:31:20;;;;;;;0.7;0.7;;;;;;;4.7;100;94555.14;;;;
2020/10/27 03:32:20;;;;;;;0.7;0.7;;;;;;;4.7;100;94555.14;;;;
2020/10/27 03:33:21;;;;;;;1.5;0.7;;;;;;;4.63;100;94566.82;;;;
2020/10/27 03:34:21;;;;;;;1.5;0.7;;;;;;;4.63;100;94566.82;;;;
2020/10/27 03:35:22;;;;;;;1.5;0.7;;;;;;;4.63;100;94566.82;;;;
2020/10/27 03:36:22;;;;;;;1.5;0.7;;;;;;;4.63;100;94566.82;;;;
2020/10/27 03:37:23;;;;;;;1.5;0.7;;;;;;;4.63;100;94566.82;;;;
2020/10/27 03:38:23;;;;;;;1.5;0.7;;;;;;;4.63;100;94566.82;;;;
2020/10/27 03:39:24;;;;;;;1.5;0.7;;;;;;;4.63;100;94566.82;;;;
2020/10/27 03:40:24;;;;;;;1.5;0.7;;;;;;;4.63;100;94566.82;;;;
2020/10/27 03:41:25;;;;;;;1.5;0.7;;;;;;;4.63;100;94566.82;;;;
2020/10/27 03:42:25;;;;;;;1.5;0.7;;;;;;;4.63;100;94566.82;;;;
2020/10/27 03:43:26;;;;;;;0.6;0.6;;;;;;;4.64;100;94573.91;;;;
2020/10/27 03:44:27;;;;;;;0.6;0.6;;;;;;;4.64;100;94573.91;;;;
2020/10/27 03:45:27;;;;;;;0.6;0.6;;;;;;;4.64;100;94573.91;;;;
2020/10/27 03:46:29;;;;;;;0.6;0.6;;;;;;;4.64;100;94573.91;;;;
2020/10/27 03:47:30;;;;;;;0.6;0.6;;;;;;;4.64;100;94573.91;;;;
2020/10/27 03:48:30;;;;;;;0.6;0.6;;;;;;;4.64;100;94573.91;;;;
2020/10/27 03:49:31;;;;;;;0.6;0.6;;;;;;;4.64;100;94573.91;;;;
2020/10/27 03:50:31;;;;;;;0.6;0.6;;;;;;;4.64;100;94573.91;;;;
2020/10/27 03:51:32;;;;;;;0.6;0.6;;;;;;;4.64;100;94573.91;;;;
2020/10/27 03:52:32;;;;;;;0.6;0.6;;;;;;;4.64;100;94573.91;;;;
2020/10/27 03:53:33;;;;;;;0.6;0.6;;;;;;;4.64;100;94573.91;;;;
2020/10/27 03:54:33;;;;;;;1;0.7;;;;;;;4.57;100;94585.97;;;;
2020/10/27 03:55:34;;;;;;;1;0.7;;;;;;;4.57;100;94585.97;;;;
2020/10/27 03:56:34;;;;;;;1;0.7;;;;;;;4.57;100;94585.97;;;;
2020/10/27 03:57:35;;;;;;;1;0.7;;;;;;;4.57;100;94585.97;;;;
2020/10/27 03:58:36;;;;;;;1;0.7;;;;;;;4.57;100;94585.97;;;;
2020/10/27 03:59:36;;;;;;;1;0.7;;;;;;;4.57;100;94585.97;;;;
2020/10/27 04:00:37;;;;;;;1;0.7;;;;;;;4.57;100;94585.97;;;;
2020/10/27 04:01:37;;;;;;;1;0.7;;;;;;;4.57;100;94585.97;;;;
2020/10/27 04:02:38;;;;;;;1;0.7;;;;;;;4.57;100;94585.97;;;;
2020/10/27 04:03:39;;;;;;;1;0.7;;;;;;;4.57;100;94585.97;;;;
2020/10/27 04:04:40;;;;;;;0.8;0.7;;;;;;;4.59;100;94611.05;;;;
2020/10/27 04:05:40;;;;;;;0.8;0.7;;;;;;;4.59;100;94611.05;;;;
2020/10/27 04:06:41;;;;;;;0.8;0.7;;;;;;;4.59;100;94611.05;;;;
2020/10/27 04:07:41;;;;;;;0.8;0.7;;;;;;;4.59;100;94611.05;;;;
2020/10/27 04:08:42;;;;;;;0.8;0.7;;;;;;;4.59;100;94611.05;;;;
2020/10/27 04:09:42;;;;;;;0.8;0.7;;;;;;;4.59;100;94611.05;;;;
2020/10/27 04:10:43;;;;;;;0.8;0.7;;;;;;;4.59;100;94611.05;;;;
2020/10/27 04:11:50;;;;;;;0.8;0.7;;;;;;;4.59;100;94611.05;;;;
2020/10/27 04:12:51;;;;;;;0.8;0.7;;;;;;;4.59;100;94611.05;;;;
2020/10/27 04:13:51;;;;;;;0.8;0.7;;;;;;;4.59;100;94611.05;;;;
2020/10/27 04:14:53;;;;;;;0.8;0.7;;;;;;;4.59;100;94611.05;;;;
2020/10/27 04:15:53;;;;;;;0.7;0.7;;;;;;;4.57;100;94617.25;;;;
2020/10/27 04:16:54;;;;;;;0.7;0.7;;;;;;;4.57;100;94617.25;;;;
2020/10/27 04:17:55;;;;;;;0.7;0.7;;;;;;;4.57;100;94617.25;;;;
2020/10/27 04:18:55;;;;;;;0.7;0.7;;;;;;;4.57;100;94617.25;;;;
2020/10/27 04:19:56;;;;;;;0.7;0.7;;;;;;;4.57;100;94617.25;;;;
2020/10/27 04:20:56;;;;;;;0.7;0.7;;;;;;;4.57;100;94617.25;;;;
2020/10/27 04:21:57;;;;;;;0.7;0.7;;;;;;;4.57;100;94617.25;;;;
2020/10/27 04:22:58;;;;;;;0.7;0.7;;;;;;;4.57;100;94617.25;;;;
2020/10/27 04:23:58;;;;;;;0.7;0.7;;;;;;;4.57;100;94617.25;;;;
2020/10/27 04:24:59;;;;;;;0.7;0.7;;;;;;;4.57;100;94617.25;;;;
2020/10/27 04:25:59;;;;;;;0.7;0.7;;;;;;;4.62;100;94627.98;;;;
2020/10/27 04:27:00;;;;;;;0.7;0.7;;;;;;;4.62;100;94627.98;;;;
2020/10/27 04:28:00;;;;;;;0.7;0.7;;;;;;;4.62;100;94627.98;;;;
2020/10/27 04:29:01;;;;;;;0.7;0.7;;;;;;;4.62;100;94627.98;;;;
2020/10/27 04:30:02;;;;;;;0.7;0.7;;;;;;;4.62;100;94627.98;;;;
2020/10/27 04:31:03;;;;;;;0.7;0.7;;;;;;;4.62;100;94627.98;;;;
2020/10/27 04:32:05;;;;;;;0.7;0.7;;;;;;;4.62;100;94627.98;;;;
2020/10/27 04:33:08;;;;;;;0.7;0.7;;;;;;;4.62;100;94627.98;;;;
2020/10/27 04:34:08;;;;;;;0.7;0.7;;;;;;;4.62;100;94627.98;;;;
2020/10/27 04:35:09;;;;;;;0.7;0.7;;;;;;;4.62;100;94627.98;;;;
2020/10/27 04:36:09;;;;;;;0.7;0.7;;;;;;;4.62;100;94627.98;;;;
2020/10/27 04:37:10;;;;;;;0.7;0.7;;;;;;;4.61;100;94634.48;;;;
2020/10/27 04:38:15;;;;;;;0.7;0.7;;;;;;;4.61;100;94634.48;;;;
2020/10/27 04:39:15;;;;;;;0.7;0.7;;;;;;;4.61;100;94634.48;;;;
2020/10/27 04:40:17;;;;;;;0.7;0.7;;;;;;;4.61;100;94634.48;;;;
2020/10/27 04:41:17;;;;;;;0.7;0.7;;;;;;;4.61;100;94634.48;;;;
2020/10/27 04:42:18;;;;;;;0.7;0.7;;;;;;;4.61;100;94634.48;;;;
2020/10/27 04:43:19;;;;;;;0.7;0.7;;;;;;;4.61;100;94634.48;;;;
2020/10/27 04:44:20;;;;;;;0.7;0.7;;;;;;;4.61;100;94634.48;;;;
2020/10/27 04:45:21;;;;;;;0.7;0.7;;;;;;;4.61;100;94634.48;;;;
2020/10/27 04:46:24;;;;;;;0.7;0.7;;;;;;;4.61;100;94634.48;;;;
2020/10/27 04:47:24;;;;;;;1.7;0.7;;;;;;;4.65;100;94626.33;;;;
2020/10/27 04:48:25;;;;;;;1.7;0.7;;;;;;;4.65;100;94626.33;;;;
2020/10/27 04:49:27;;;;;;;1.7;0.7;;;;;;;4.65;100;94626.33;;;;
2020/10/27 04:50:30;;;;;;;1.7;0.7;;;;;;;4.65;100;94626.33;;;;
2020/10/27 04:51:34;;;;;;;1.7;0.7;;;;;;;4.65;100;94626.33;;;;
2020/10/27 04:52:35;;;;;;;1.7;0.7;;;;;;;4.65;100;94626.33;;;;
2020/10/27 04:53:36;;;;;;;1.7;0.7;;;;;;;4.65;100;94626.33;;;;
2020/10/27 04:54:38;;;;;;;1.7;0.7;;;;;;;4.65;100;94626.33;;;;
2020/10/27 04:55:38;;;;;;;1.7;0.7;;;;;;;4.65;100;94626.33;;;;
2020/10/27 04:56:39;;;;;;;1.7;0.7;;;;;;;4.65;100;94626.33;;;;
2020/10/27 04:57:40;;;;;;;1.7;0.7;;;;;;;4.65;100;94626.33;;;;
2020/10/27 04:58:40;;;;;;;2.15;0.8;;;;;;;4.62;100;94622.77;;;;
2020/10/27 04:59:47;;;;;;;2.15;0.8;;;;;;;4.62;100;94622.77;;;;
2020/10/27 05:00:48;;;;;;;2.15;0.8;;;;;;;4.62;100;94622.77;;;;
2020/10/27 05:01:52;;;;;;;2.15;0.8;;;;;;;4.62;100;94622.77;;;;
2020/10/27 05:02:53;;;;;;;2.15;0.8;;;;;;;4.62;100;94622.77;;;;
2020/10/27 05:04:02;;;;;;;2.15;0.8;;;;;;;4.62;100;94622.77;;;;
2020/10/27 05:05:13;;;;;;;2.15;0.8;;;;;;;4.62;100;94622.77;;;;
2020/10/27 05:06:14;;;;;;;2.15;0.8;;;;;;;4.62;100;94622.77;;;;
2020/10/27 05:07:15;;;;;;;2.15;0.8;;;;;;;4.62;100;94622.77;;;;
2020/10/27 05:08:27;;;;;;;0.8;0.8;;;;;;;4.65;100;94617.8;;;;
2020/10/27 05:09:28;;;;;;;0.8;0.8;;;;;;;4.65;100;94617.8;;;;
2020/10/27 05:10:29;;;;;;;0.8;0.8;;;;;;;4.65;100;94617.8;;;;
2020/10/27 05:11:30;;;;;;;0.8;0.8;;;;;;;4.65;100;94617.8;;;;
2020/10/27 05:12:31;;;;;;;0.8;0.8;;;;;;;4.65;100;94617.8;;;;
2020/10/27 05:13:40;;;;;;;0.8;0.8;;;;;;;4.65;100;94617.8;;;;
2020/10/27 05:14:49;;;;;;;0.8;0.8;;;;;;;4.65;100;94617.8;;;;
2020/10/27 05:15:57;;;;;;;0.8;0.8;;;;;;;4.65;100;94617.8;;;;
2020/10/27 05:17:13;;;;;;;0.8;0.8;;;;;;;4.65;100;94617.8;;;;
2020/10/27 05:18:18;;;;;;;0.8;0.8;;;;;;;4.65;100;94617.8;;;;
2020/10/27 05:19:37;;;;;;;2.5;0.9;;;;;;;4.59;100;94622.66;;;;
2020/10/27 05:20:50;;;;;;;2.5;0.9;;;;;;;4.59;100;94622.66;;;;
2020/10/27 05:21:51;;;;;;;2.5;0.9;;;;;;;4.59;100;94622.66;;;;
2020/10/27 05:22:51;;;;;;;2.5;0.9;;;;;;;4.59;100;94622.66;;;;
2020/10/27 05:24:01;;;;;;;2.5;0.9;;;;;;;4.59;100;94622.66;;;;
2020/10/27 05:25:02;;;;;;;2.5;0.9;;;;;;;4.59;100;94622.66;;;;
2020/10/27 05:26:03;;;;;;;2.5;0.9;;;;;;;4.59;100;94622.66;;;;
2020/10/27 05:27:03;;;;;;;2.5;0.9;;;;;;;4.59;100;94622.66;;;;
2020/10/27 05:28:05;;;;;;;2.5;0.9;;;;;;;4.59;100;94622.66;;;;
2020/10/27 05:29:06;;;;;;;2.5;0.9;;;;;;;4.59;100;94622.66;;;;
2020/10/27 05:30:06;;;;;;;1.35;0.9;;;;;;;4.61;100;94621.94;;;;
2020/10/27 05:31:17;;;;;;;1.35;0.9;;;;;;;4.61;100;94621.94;;;;
2020/10/27 05:32:17;;;;;;;1.35;0.9;;;;;;;4.61;100;94621.94;;;;
2020/10/27 05:33:18;;;;;;;1.35;0.9;;;;;;;4.61;100;94621.94;;;;
2020/10/27 05:34:19;;;;;;;1.35;0.9;;;;;;;4.61;100;94621.94;;;;
2020/10/27 05:35:20;;;;;;;1.35;0.9;;;;;;;4.61;100;94621.94;;;;
2020/10/27 05:36:22;;;;;;;1.35;0.9;;;;;;;4.61;100;94621.94;;;;
2020/10/27 05:37:23;;;;;;;1.35;0.9;;;;;;;4.61;100;94621.94;;;;
2020/10/27 05:38:29;;;;;;;1.35;0.9;;;;;;;4.61;100;94621.94;;;;
2020/10/27 05:39:32;;;;;;;1.35;0.9;;;;;;;4.61;100;94621.94;;;;
2020/10/27 05:40:36;;;;;;;1.1;1;;;;;;;4.59;100;94637.37;;;;
2020/10/27 05:41:37;;;;;;;1.1;1;;;;;;;4.59;100;94637.37;;;;
2020/10/27 05:42:48;;;;;;;1.1;1;;;;;;;4.59;100;94637.37;;;;
2020/10/27 05:43:48;;;;;;;1.1;1;;;;;;;4.59;100;94637.37;;;;
2020/10/27 05:44:50;;;;;;;1.1;1;;;;;;;4.59;100;94637.37;;;;
2020/10/27 05:45:51;;;;;;;1.1;1;;;;;;;4.59;100;94637.37;;;;
2020/10/27 05:46:51;;;;;;;1.1;1;;;;;;;4.59;100;94637.37;;;;
2020/10/27 05:48:00;;;;;;;1.1;1;;;;;;;4.59;100;94637.37;;;;
2020/10/27 05:49:01;;;;;;;1.1;1;;;;;;;4.59;100;94637.37;;;;
2020/10/27 05:50:02;;;;;;;1.1;1;;;;;;;4.59;100;94637.37;;;;
2020/10/27 05:51:11;;;;;;;0.95;0.9;;;;;;;4.62;100;94659.69;;;;
2020/10/27 05:52:37;;;;;;;0.95;0.9;;;;;;;4.62;100;94659.69;;;;
2020/10/27 05:53:39;;;;;;;0.95;0.9;;;;;;;4.62;100;94659.69;;;;
2020/10/27 05:54:40;;;;;;;0.95;0.9;;;;;;;4.62;100;94659.69;;;;
2020/10/27 05:55:41;;;;;;;0.95;0.9;;;;;;;4.62;100;94659.69;;;;
2020/10/27 05:56:41;;;;;;;0.95;0.9;;;;;;;4.62;100;94659.69;;;;
2020/10/27 05:57:43;;;;;;;0.95;0.9;;;;;;;4.62;100;94659.69;;;;
2020/10/27 05:58:44;;;;;;;0.95;0.9;;;;;;;4.62;100;94659.69;;;;
2020/10/27 05:59:44;;;;;;;0.95;0.9;;;;;;;4.62;100;94659.69;;;;
2020/10/27 06:00:45;;;;;;;0.95;0.9;;;;;;;4.62;100;94659.69;;;;
2020/10/27 06:01:46;;;;;;;1.15;1.05;;;;;;;4.62;100;94676.23;;;;
2020/10/27 06:03:08;;;;;;;1.15;1.05;;;;;;;4.62;100;94676.23;;;;
2020/10/27 06:04:12;;;;;;;1.15;1.05;;;;;;;4.62;100;94676.23;;;;
2020/10/27 06:05:18;;;;;;;1.15;1.05;;;;;;;4.62;100;94676.23;;;;
2020/10/27 06:06:28;;;;;;;1.15;1.05;;;;;;;4.62;100;94676.23;;;;
2020/10/27 06:07:34;;;;;;;1.15;1.05;;;;;;;4.62;100;94676.23;;;;
2020/10/27 06:08:47;;;;;;;1.15;1.05;;;;;;;4.62;100;94676.23;;;;
2020/10/27 06:10:07;;;;;;;1.15;1.05;;;;;;;4.62;100;94676.23;;;;
2020/10/27 06:11:23;;;;;;;1.15;1.05;;;;;;;4.62;100;94676.23;;;;
2020/10/27 06:12:36;;;;;;;1.85;1.1;;;;;;;4.76;100;94697.85;;;;
2020/10/27 06:13:43;;;;;;;1.85;1.1;;;;;;;4.76;100;94697.85;;;;
2020/10/27 06:14:48;;;;;;;1.85;1.1;;;;;;;4.76;100;94697.85;;;;
2020/10/27 06:15:55;;;;;;;1.85;1.1;;;;;;;4.76;100;94697.85;;;;
2020/10/27 06:16:57;;;;;;;1.85;1.1;;;;;;;4.76;100;94697.85;;;;
2020/10/27 06:17:58;;;;;;;1.85;1.1;;;;;;;4.76;100;94697.85;;;;
2020/10/27 06:18:58;;;;;;;1.85;1.1;;;;;;;4.76;100;94697.85;;;;
2020/10/27 06:19:59;;;;;;;1.85;1.1;;;;;;;4.76;100;94697.85;;;;
2020/10/27 06:21:02;;;;;;;1.85;1.1;;;;;;;4.76;100;94697.85;;;;
2020/10/27 06:22:04;;;;;;;1.85;1.1;;;;;;;4.76;100;94697.85;;;;
2020/10/27 06:23:07;;;;;;;1.9;1.1;;;;;;;4.86;100;94686.15;;;;
2020/10/27 06:24:08;;;;;;;1.9;1.1;;;;;;;4.86;100;94686.15;;;;
2020/10/27 06:25:09;;;;;;;1.9;1.1;;;;;;;4.86;100;94686.15;;;;
2020/10/27 06:26:28;;;;;;;1.9;1.1;;;;;;;4.86;100;94686.15;;;;
2020/10/27 06:27:30;;;;;;;1.9;1.1;;;;;;;4.86;100;94686.15;;;;
2020/10/27 06:28:34;;;;;;;1.9;1.1;;;;;;;4.86;100;94686.15;;;;
2020/10/27 06:29:38;;;;;;;1.9;1.1;;;;;;;4.86;100;94686.15;;;;
2020/10/27 06:30:40;;;;;;;1.9;1.1;;;;;;;4.86;100;94686.15;;;;
2020/10/27 06:31:43;;;;;;;1.9;1.1;;;;;;;4.86;100;94686.15;;;;
2020/10/27 06:32:58;;;;;;;1.9;1.1;;;;;;;4.86;100;94686.15;;;;
2020/10/27 06:33:59;;;;;;;1.2;1.1;;;;;;;5.04;100;94704.03;;;;
2020/10/27 06:35:00;;;;;;;1.2;1.1;;;;;;;5.04;100;94704.03;;;;
2020/10/27 06:36:01;;;;;;;1.2;1.1;;;;;;;5.04;100;94704.03;;;;